PWSweather.com
Personal Weather Stations
Station Observations
NAGEO265NE
Bedzin GrodziecPL 42-506

Bedzin GrodziecPL 42-506

Lat: 50.347, Lon: 19.079

Elevation: 948

Station Type: WH1080

http://www.meteo-grodziec.pl/

High Low Average
Temperature 89.2°F31.8°C 62.1°F16.7°C 75.8°F24.3°C
Dew Point 68.5°F20.3°C 60.8°F16.0°C 64.2°F17.9°C
Winds 5.0 mph 8.0 kmh Calm Calm 1.0 mph E1.6 kmh E
Wind Gusts 11.0 mph17.7 kmh -- 5.0 mph8.0 kmh
Humidity 97% 44% 71%
Pressure 29.63 in1003.4 mb 29.54 in1000.3 mb -
Precipitation 0.01 in0.3 mm - -
Hour Temp Dew Point Humidity Winds Wind Gusts Pressure Precip Precip Rate Daily Precip Total
12:00 AM 63.3°F17.4°C 62.1°F16.7°C 96% Calm Calm 1.0 mph1.6 kmh 29.62 in1003.0 mb 0.00 in0.0 mm 0.00 in0.0 mm 0.00 in0.0 mm
12:05 AM 63.3°F17.4°C 62.1°F16.7°C 96% Calm Calm 1.0 mph1.6 kmh 29.62 in1003.0 mb 0.00 in0.0 mm 0.00 in0.0 mm 0.00 in0.0 mm
12:10 AM 63.5°F17.5°C 62.4°F16.9°C 96% Calm Calm 1.0 mph1.6 kmh 29.62 in1003.0 mb 0.00 in0.0 mm 0.00 in0.0 mm 0.00 in0.0 mm
12:15 AM 63.7°F17.6°C 62.4°F16.9°C 96% Calm Calm 1.0 mph1.6 kmh 29.62 in1003.0 mb 0.00 in0.0 mm 0.00 in0.0 mm 0.00 in0.0 mm
12:20 AM 63.7°F17.6°C 62.4°F16.9°C 96% Calm Calm 1.0 mph1.6 kmh 29.62 in1003.0 mb 0.00 in0.0 mm 0.00 in0.0 mm 0.00 in0.0 mm
12:25 AM 63.7°F17.6°C 62.4°F16.9°C 96% Calm Calm 1.0 mph1.6 kmh 29.62 in1003.0 mb 0.00 in0.0 mm 0.00 in0.0 mm 0.00 in0.0 mm
12:30 AM 63.7°F17.6°C 62.4°F16.9°C 96% Calm Calm 1.0 mph1.6 kmh 29.62 in1003.0 mb 0.00 in0.0 mm 0.00 in0.0 mm 0.00 in0.0 mm
12:35 AM 63.5°F17.5°C 62.4°F16.9°C 96% Calm Calm -- 29.62 in1003.0 mb 0.00 in0.0 mm 0.00 in0.0 mm 0.00 in0.0 mm
12:40 AM 63.3°F17.4°C 62.1°F16.7°C 96% Calm Calm -- 29.62 in1003.0 mb 0.00 in0.0 mm 0.00 in0.0 mm 0.00 in0.0 mm
12:45 AM 63.0°F17.2°C 61.7°F16.5°C 96% Calm Calm -- 29.62 in1003.0 mb 0.00 in0.0 mm 0.00 in0.0 mm 0.00 in0.0 mm
12:50 AM 62.2°F16.8°C 61.2°F16.2°C 96% Calm Calm -- 29.62 in1003.0 mb 0.00 in0.0 mm 0.00 in0.0 mm 0.00 in0.0 mm
12:55 AM 62.1°F16.7°C 61.0°F16.1°C 96% Calm Calm -- 29.63 in1003.4 mb 0.00 in0.0 mm 0.00 in0.0 mm 0.00 in0.0 mm
01:00 AM 62.1°F16.7°C 61.0°F16.1°C 96% Calm Calm 1.0 mph1.6 kmh 29.63 in1003.4 mb 0.00 in0.0 mm 0.00 in0.0 mm 0.00 in0.0 mm
01:05 AM 62.2°F16.8°C 61.0°F16.1°C 96% Calm Calm 1.0 mph1.6 kmh 29.62 in1003.0 mb 0.00 in0.0 mm 0.00 in0.0 mm 0.00 in0.0 mm
01:10 AM 62.2°F16.8°C 61.0°F16.1°C 96% Calm Calm -- 29.62 in1003.0 mb 0.00 in0.0 mm 0.00 in0.0 mm 0.00 in0.0 mm
01:15 AM 62.1°F16.7°C 60.8°F16.0°C 96% Calm Calm -- 29.62 in1003.0 mb 0.00 in0.0 mm 0.00 in0.0 mm 0.00 in0.0 mm
01:20 AM 62.1°F16.7°C 61.0°F16.1°C 96% Calm Calm -- 29.62 in1003.0 mb 0.00 in0.0 mm 0.00 in0.0 mm 0.00 in0.0 mm
01:25 AM 62.2°F16.8°C 61.3°F16.3°C 97% Calm Calm 1.0 mph1.6 kmh 29.62 in1003.0 mb 0.00 in0.0 mm 0.00 in0.0 mm 0.00 in0.0 mm
01:30 AM 62.2°F16.8°C 61.3°F16.3°C 97% Calm Calm 1.0 mph1.6 kmh 29.62 in1003.0 mb 0.00 in0.0 mm 0.00 in0.0 mm 0.00 in0.0 mm
01:35 AM 62.2°F16.8°C 61.5°F16.4°C 97% Calm Calm -- 29.62 in1003.0 mb 0.01 in0.3 mm 0.12 in3.0 mm 0.01 in0.3 mm
01:40 AM 62.2°F16.8°C 61.5°F16.4°C 97% Calm Calm -- 29.62 in1003.0 mb 0.01 in0.3 mm 0.00 in0.0 mm 0.01 in0.3 mm
01:45 AM 62.4°F16.9°C 61.5°F16.4°C 97% Calm Calm -- 29.62 in1003.0 mb 0.01 in0.3 mm 0.00 in0.0 mm 0.01 in0.3 mm
01:50 AM 62.2°F16.8°C 61.5°F16.4°C 97% Calm Calm -- 29.62 in1003.0 mb 0.01 in0.3 mm 0.00 in0.0 mm 0.01 in0.3 mm
01:55 AM 62.8°F17.1°C 61.9°F16.6°C 97% Calm Calm 2.0 mph3.2 kmh 29.62 in1003.0 mb 0.01 in0.3 mm 0.00 in0.0 mm 0.01 in0.3 mm
02:00 AM 63.1°F17.3°C 62.2°F16.8°C 97% Calm Calm 2.0 mph3.2 kmh 29.62 in1003.0 mb 0.01 in0.3 mm 0.00 in0.0 mm 0.01 in0.3 mm
02:05 AM 63.1°F17.3°C 62.4°F16.9°C 97% Calm Calm 2.0 mph3.2 kmh 29.62 in1003.0 mb 0.01 in0.3 mm 0.00 in0.0 mm 0.01 in0.3 mm
02:10 AM 63.3°F17.4°C 62.4°F16.9°C 97% Calm Calm 1.0 mph1.6 kmh 29.61 in1002.7 mb 0.01 in0.3 mm 0.00 in0.0 mm 0.01 in0.3 mm
02:15 AM 63.3°F17.4°C 62.4°F16.9°C 97% Calm Calm 2.0 mph3.2 kmh 29.61 in1002.7 mb 0.01 in0.3 mm 0.00 in0.0 mm 0.01 in0.3 mm
02:20 AM 63.3°F17.4°C 62.4°F16.9°C 97% Calm Calm 2.0 mph3.2 kmh 29.61 in1002.7 mb 0.01 in0.3 mm 0.00 in0.0 mm 0.01 in0.3 mm
02:25 AM 63.3°F17.4°C 62.4°F16.9°C 97% 1.0 mph ENE1.6 kmh ENE 2.0 mph3.2 kmh 29.61 in1002.7 mb 0.01 in0.3 mm 0.00 in0.0 mm 0.01 in0.3 mm
02:30 AM 63.1°F17.3°C 62.4°F16.9°C 97% Calm Calm 2.0 mph3.2 kmh 29.62 in1003.0 mb 0.01 in0.3 mm 0.00 in0.0 mm 0.01 in0.3 mm
02:35 AM 63.0°F17.2°C 62.1°F16.7°C 97% Calm Calm -- 29.62 in1003.0 mb 0.00 in0.0 mm 0.00 in0.0 mm 0.01 in0.3 mm
02:40 AM 63.0°F17.2°C 62.1°F16.7°C 97% Calm Calm -- 29.62 in1003.0 mb 0.00 in0.0 mm 0.00 in0.0 mm 0.01 in0.3 mm
02:45 AM 62.8°F17.1°C 61.9°F16.6°C 97% Calm Calm -- 29.62 in1003.0 mb 0.00 in0.0 mm 0.00 in0.0 mm 0.01 in0.3 mm
02:50 AM 62.8°F17.1°C 61.9°F16.6°C 97% Calm Calm -- 29.62 in1003.0 mb 0.00 in0.0 mm 0.00 in0.0 mm 0.01 in0.3 mm
02:55 AM 62.6°F17.0°C 61.7°F16.5°C 97% Calm Calm -- 29.61 in1002.7 mb 0.00 in0.0 mm 0.00 in0.0 mm 0.01 in0.3 mm
03:00 AM 62.6°F17.0°C 61.7°F16.5°C 97% Calm Calm 1.0 mph1.6 kmh 29.61 in1002.7 mb 0.00 in0.0 mm 0.00 in0.0 mm 0.01 in0.3 mm
03:05 AM 62.6°F17.0°C 61.7°F16.5°C 97% Calm Calm 1.0 mph1.6 kmh 29.61 in1002.7 mb 0.00 in0.0 mm 0.00 in0.0 mm 0.01 in0.3 mm
03:10 AM 62.8°F17.1°C 61.9°F16.6°C 97% Calm Calm 1.0 mph1.6 kmh 29.61 in1002.7 mb 0.00 in0.0 mm 0.00 in0.0 mm 0.01 in0.3 mm
03:15 AM 62.6°F17.0°C 61.7°F16.5°C 97% Calm Calm 1.0 mph1.6 kmh 29.61 in1002.7 mb 0.00 in0.0 mm 0.00 in0.0 mm 0.01 in0.3 mm
03:20 AM 62.8°F17.1°C 61.9°F16.6°C 97% Calm Calm 1.0 mph1.6 kmh 29.61 in1002.7 mb 0.00 in0.0 mm 0.00 in0.0 mm 0.01 in0.3 mm
03:25 AM 62.8°F17.1°C 61.9°F16.6°C 97% Calm Calm 3.0 mph4.8 kmh 29.61 in1002.7 mb 0.00 in0.0 mm 0.00 in0.0 mm 0.01 in0.3 mm
03:30 AM 62.8°F17.1°C 61.9°F16.6°C 97% Calm Calm 3.0 mph4.8 kmh 29.61 in1002.7 mb 0.00 in0.0 mm 0.00 in0.0 mm 0.01 in0.3 mm
03:35 AM 62.6°F17.0°C 61.7°F16.5°C 97% Calm Calm 1.0 mph1.6 kmh 29.61 in1002.7 mb 0.00 in0.0 mm 0.00 in0.0 mm 0.01 in0.3 mm
03:40 AM 62.4°F16.9°C 61.7°F16.5°C 97% Calm Calm 1.0 mph1.6 kmh 29.61 in1002.7 mb 0.00 in0.0 mm 0.00 in0.0 mm 0.01 in0.3 mm
03:45 AM 62.4°F16.9°C 61.5°F16.4°C 97% Calm Calm 1.0 mph1.6 kmh 29.60 in1002.4 mb 0.00 in0.0 mm 0.00 in0.0 mm 0.01 in0.3 mm
03:50 AM 62.2°F16.8°C 61.3°F16.3°C 97% Calm Calm 1.0 mph1.6 kmh 29.60 in1002.4 mb 0.00 in0.0 mm 0.00 in0.0 mm 0.01 in0.3 mm
03:55 AM 62.2°F16.8°C 61.3°F16.3°C 97% Calm Calm 1.0 mph1.6 kmh 29.60 in1002.4 mb 0.00 in0.0 mm 0.00 in0.0 mm 0.01 in0.3 mm
04:00 AM 62.1°F16.7°C 61.2°F16.2°C 97% Calm Calm 1.0 mph1.6 kmh 29.59 in1002.0 mb 0.00 in0.0 mm 0.00 in0.0 mm 0.01 in0.3 mm
04:05 AM 62.1°F16.7°C 61.2°F16.2°C 97% Calm Calm -- 29.59 in1002.0 mb 0.00 in0.0 mm 0.00 in0.0 mm 0.01 in0.3 mm
04:10 AM 62.1°F16.7°C 61.2°F16.2°C 97% Calm Calm 2.0 mph3.2 kmh 29.59 in1002.0 mb 0.00 in0.0 mm 0.00 in0.0 mm 0.01 in0.3 mm
04:15 AM 62.2°F16.8°C 61.3°F16.3°C 97% Calm Calm 2.0 mph3.2 kmh 29.59 in1002.0 mb 0.00 in0.0 mm 0.00 in0.0 mm 0.01 in0.3 mm
04:20 AM 62.4°F16.9°C 61.7°F16.5°C 97% 1.0 mph ENE1.6 kmh ENE 3.0 mph4.8 kmh 29.59 in1002.0 mb 0.00 in0.0 mm 0.00 in0.0 mm 0.01 in0.3 mm
04:25 AM 62.4°F16.9°C 61.5°F16.4°C 97% Calm Calm 3.0 mph4.8 kmh 29.59 in1002.0 mb 0.00 in0.0 mm 0.00 in0.0 mm 0.01 in0.3 mm
04:30 AM 62.2°F16.8°C 61.5°F16.4°C 97% 1.0 mph NE1.6 kmh NE 5.0 mph8.0 kmh 29.59 in1002.0 mb 0.00 in0.0 mm 0.00 in0.0 mm 0.01 in0.3 mm
04:35 AM 62.2°F16.8°C 61.5°F16.4°C 97% 1.0 mph NE1.6 kmh NE 5.0 mph8.0 kmh 29.59 in1002.0 mb 0.00 in0.0 mm 0.00 in0.0 mm 0.01 in0.3 mm
04:40 AM 62.4°F16.9°C 61.5°F16.4°C 97% 1.0 mph NNE1.6 kmh NNE 4.0 mph6.4 kmh 29.59 in1002.0 mb 0.00 in0.0 mm 0.00 in0.0 mm 0.01 in0.3 mm
04:45 AM 62.6°F17.0°C 61.7°F16.5°C 97% 1.0 mph NE1.6 kmh NE 4.0 mph6.4 kmh 29.59 in1002.0 mb 0.00 in0.0 mm 0.00 in0.0 mm 0.01 in0.3 mm
04:50 AM 62.8°F17.1°C 61.9°F16.6°C 97% 1.0 mph NE1.6 kmh NE 4.0 mph6.4 kmh 29.59 in1002.0 mb 0.00 in0.0 mm 0.00 in0.0 mm 0.01 in0.3 mm
04:55 AM 63.0°F17.2°C 62.1°F16.7°C 97% 1.0 mph NE1.6 kmh NE 4.0 mph6.4 kmh 29.59 in1002.0 mb 0.00 in0.0 mm 0.00 in0.0 mm 0.01 in0.3 mm
05:00 AM 63.0°F17.2°C 62.1°F16.7°C 97% 1.0 mph NE1.6 kmh NE 3.0 mph4.8 kmh 29.60 in1002.4 mb 0.00 in0.0 mm 0.00 in0.0 mm 0.01 in0.3 mm
05:05 AM 63.1°F17.3°C 62.4°F16.9°C 97% Calm Calm 3.0 mph4.8 kmh 29.60 in1002.4 mb 0.00 in0.0 mm 0.00 in0.0 mm 0.01 in0.3 mm
05:10 AM 63.1°F17.3°C 62.4°F16.9°C 97% Calm Calm 1.0 mph1.6 kmh 29.59 in1002.0 mb 0.00 in0.0 mm 0.00 in0.0 mm 0.01 in0.3 mm
05:15 AM 63.1°F17.3°C 61.9°F16.6°C 96% Calm Calm 1.0 mph1.6 kmh 29.60 in1002.4 mb 0.00 in0.0 mm 0.00 in0.0 mm 0.01 in0.3 mm
05:20 AM 63.1°F17.3°C 62.1°F16.7°C 96% Calm Calm 1.0 mph1.6 kmh 29.60 in1002.4 mb 0.00 in0.0 mm 0.00 in0.0 mm 0.01 in0.3 mm
05:25 AM 63.3°F17.4°C 62.1°F16.7°C 96% Calm Calm 1.0 mph1.6 kmh 29.60 in1002.4 mb 0.00 in0.0 mm 0.00 in0.0 mm 0.01 in0.3 mm
05:30 AM 63.1°F17.3°C 61.9°F16.6°C 96% Calm Calm 1.0 mph1.6 kmh 29.60 in1002.4 mb 0.00 in0.0 mm 0.00 in0.0 mm 0.01 in0.3 mm
05:35 AM 62.8°F17.1°C 61.7°F16.5°C 96% Calm Calm 1.0 mph1.6 kmh 29.61 in1002.7 mb 0.00 in0.0 mm 0.00 in0.0 mm 0.01 in0.3 mm
05:40 AM 62.8°F17.1°C 61.7°F16.5°C 96% Calm Calm 1.0 mph1.6 kmh 29.61 in1002.7 mb 0.00 in0.0 mm 0.00 in0.0 mm 0.01 in0.3 mm
05:45 AM 62.8°F17.1°C 61.5°F16.4°C 96% Calm Calm -- 29.61 in1002.7 mb 0.00 in0.0 mm 0.00 in0.0 mm 0.01 in0.3 mm
05:50 AM 62.6°F17.0°C 61.5°F16.4°C 96% Calm Calm 1.0 mph1.6 kmh 29.61 in1002.7 mb 0.00 in0.0 mm 0.00 in0.0 mm 0.01 in0.3 mm
05:55 AM 62.8°F17.1°C 61.5°F16.4°C 96% Calm Calm 1.0 mph1.6 kmh 29.61 in1002.7 mb 0.00 in0.0 mm 0.00 in0.0 mm 0.01 in0.3 mm
06:00 AM 62.8°F17.1°C 61.5°F16.4°C 96% Calm Calm 1.0 mph1.6 kmh 29.61 in1002.7 mb 0.00 in0.0 mm 0.00 in0.0 mm 0.01 in0.3 mm
06:05 AM 63.5°F17.5°C 62.6°F17.0°C 97% Calm Calm 1.0 mph1.6 kmh 29.61 in1002.7 mb 0.00 in0.0 mm 0.00 in0.0 mm 0.01 in0.3 mm
06:10 AM 64.2°F17.9°C 63.5°F17.5°C 97% Calm Calm 1.0 mph1.6 kmh 29.62 in1003.0 mb 0.00 in0.0 mm 0.00 in0.0 mm 0.01 in0.3 mm
06:15 AM 64.8°F18.2°C 63.9°F17.7°C 97% Calm Calm -- 29.61 in1002.7 mb 0.00 in0.0 mm 0.00 in0.0 mm 0.01 in0.3 mm
06:20 AM 65.3°F18.5°C 64.4°F18.0°C 97% Calm Calm 2.0 mph3.2 kmh 29.61 in1002.7 mb 0.00 in0.0 mm 0.00 in0.0 mm 0.01 in0.3 mm
06:25 AM 65.8°F18.8°C 64.6°F18.1°C 96% Calm Calm 3.0 mph4.8 kmh 29.61 in1002.7 mb 0.00 in0.0 mm 0.00 in0.0 mm 0.01 in0.3 mm
06:30 AM 66.4°F19.1°C 64.8°F18.2°C 95% Calm Calm 3.0 mph4.8 kmh 29.62 in1003.0 mb 0.00 in0.0 mm 0.00 in0.0 mm 0.01 in0.3 mm
06:35 AM 66.7°F19.3°C 64.9°F18.3°C 94% Calm Calm 3.0 mph4.8 kmh 29.62 in1003.0 mb 0.00 in0.0 mm 0.00 in0.0 mm 0.01 in0.3 mm
06:40 AM 67.1°F19.5°C 64.9°F18.3°C 93% Calm Calm 3.0 mph4.8 kmh 29.61 in1002.7 mb 0.00 in0.0 mm 0.00 in0.0 mm 0.01 in0.3 mm
06:45 AM 67.1°F19.5°C 64.8°F18.2°C 92% Calm Calm 3.0 mph4.8 kmh 29.61 in1002.7 mb 0.00 in0.0 mm 0.00 in0.0 mm 0.01 in0.3 mm
06:50 AM 67.1°F19.5°C 64.4°F18.0°C 91% 1.0 mph E1.6 kmh E 4.0 mph6.4 kmh 29.61 in1002.7 mb 0.00 in0.0 mm 0.00 in0.0 mm 0.01 in0.3 mm
06:55 AM 67.3°F19.6°C 64.2°F17.9°C 90% 1.0 mph E1.6 kmh E 4.0 mph6.4 kmh 29.61 in1002.7 mb 0.00 in0.0 mm 0.00 in0.0 mm 0.01 in0.3 mm
07:00 AM 67.3°F19.6°C 64.2°F17.9°C 90% Calm Calm 4.0 mph6.4 kmh 29.61 in1002.7 mb 0.00 in0.0 mm 0.00 in0.0 mm 0.01 in0.3 mm
07:05 AM 67.1°F19.5°C 64.0°F17.8°C 90% 1.0 mph ENE1.6 kmh ENE 4.0 mph6.4 kmh 29.61 in1002.7 mb 0.00 in0.0 mm 0.00 in0.0 mm 0.01 in0.3 mm
07:10 AM 66.9°F19.4°C 63.5°F17.5°C 89% 2.0 mph ENE3.2 kmh ENE 5.0 mph8.0 kmh 29.61 in1002.7 mb 0.00 in0.0 mm 0.00 in0.0 mm 0.01 in0.3 mm
07:15 AM 66.9°F19.4°C 63.9°F17.7°C 90% 2.0 mph E3.2 kmh E 5.0 mph8.0 kmh 29.61 in1002.7 mb 0.00 in0.0 mm 0.00 in0.0 mm 0.01 in0.3 mm
07:20 AM 66.9°F19.4°C 64.0°F17.8°C 90% 2.0 mph E3.2 kmh E 6.0 mph9.7 kmh 29.61 in1002.7 mb 0.00 in0.0 mm 0.00 in0.0 mm 0.01 in0.3 mm
07:25 AM 67.1°F19.5°C 63.7°F17.6°C 89% 2.0 mph E3.2 kmh E 6.0 mph9.7 kmh 29.61 in1002.7 mb 0.00 in0.0 mm 0.00 in0.0 mm 0.01 in0.3 mm
07:30 AM 67.5°F19.7°C 64.2°F17.9°C 89% 1.0 mph ENE1.6 kmh ENE 6.0 mph9.7 kmh 29.61 in1002.7 mb 0.00 in0.0 mm 0.00 in0.0 mm 0.01 in0.3 mm
07:35 AM 67.5°F19.7°C 64.2°F17.9°C 89% 1.0 mph ENE1.6 kmh ENE 5.0 mph8.0 kmh 29.61 in1002.7 mb 0.00 in0.0 mm 0.00 in0.0 mm 0.01 in0.3 mm
07:40 AM 67.6°F19.8°C 64.2°F17.9°C 89% 1.0 mph ENE1.6 kmh ENE 4.0 mph6.4 kmh 29.61 in1002.7 mb 0.00 in0.0 mm 0.00 in0.0 mm 0.01 in0.3 mm
07:45 AM 67.6°F19.8°C 64.4°F18.0°C 89% 1.0 mph ENE1.6 kmh ENE 5.0 mph8.0 kmh 29.61 in1002.7 mb 0.00 in0.0 mm 0.00 in0.0 mm 0.01 in0.3 mm
07:50 AM 67.8°F19.9°C 64.2°F17.9°C 88% 2.0 mph ENE3.2 kmh ENE 5.0 mph8.0 kmh 29.60 in1002.4 mb 0.00 in0.0 mm 0.00 in0.0 mm 0.01 in0.3 mm
07:55 AM 68.2°F20.1°C 64.4°F18.0°C 88% 2.0 mph ENE3.2 kmh ENE 5.0 mph8.0 kmh 29.60 in1002.4 mb 0.00 in0.0 mm 0.00 in0.0 mm 0.01 in0.3 mm
08:00 AM 68.7°F20.4°C 65.5°F18.6°C 89% 1.0 mph ENE1.6 kmh ENE 4.0 mph6.4 kmh 29.60 in1002.4 mb 0.00 in0.0 mm 0.00 in0.0 mm 0.01 in0.3 mm
08:05 AM 68.9°F20.5°C 64.6°F18.1°C 86% 1.0 mph ENE1.6 kmh ENE 4.0 mph6.4 kmh 29.60 in1002.4 mb 0.00 in0.0 mm 0.00 in0.0 mm 0.01 in0.3 mm
08:10 AM 69.1°F20.6°C 65.1°F18.4°C 87% 1.0 mph ENE1.6 kmh ENE 4.0 mph6.4 kmh 29.60 in1002.4 mb 0.00 in0.0 mm 0.00 in0.0 mm 0.01 in0.3 mm
08:15 AM 69.6°F20.9°C 65.5°F18.6°C 87% 1.0 mph ENE1.6 kmh ENE 3.0 mph4.8 kmh 29.60 in1002.4 mb 0.00 in0.0 mm 0.00 in0.0 mm 0.01 in0.3 mm
08:20 AM 70.0°F21.1°C 66.0°F18.9°C 87% Calm Calm 2.0 mph3.2 kmh 29.60 in1002.4 mb 0.00 in0.0 mm 0.00 in0.0 mm 0.01 in0.3 mm
08:25 AM 70.2°F21.2°C 65.3°F18.5°C 85% Calm Calm 2.0 mph3.2 kmh 29.60 in1002.4 mb 0.00 in0.0 mm 0.00 in0.0 mm 0.01 in0.3 mm
08:30 AM 70.3°F21.3°C 65.7°F18.7°C 85% Calm Calm 1.0 mph1.6 kmh 29.60 in1002.4 mb 0.00 in0.0 mm 0.00 in0.0 mm 0.01 in0.3 mm
08:35 AM 70.3°F21.3°C 65.3°F18.5°C 84% Calm Calm 4.0 mph6.4 kmh 29.60 in1002.4 mb 0.00 in0.0 mm 0.00 in0.0 mm 0.01 in0.3 mm
08:40 AM 70.5°F21.4°C 65.5°F18.6°C 84% 1.0 mph ENE1.6 kmh ENE 4.0 mph6.4 kmh 29.60 in1002.4 mb 0.00 in0.0 mm 0.00 in0.0 mm 0.01 in0.3 mm
08:45 AM 70.5°F21.4°C 65.1°F18.4°C 83% 1.0 mph E1.6 kmh E 4.0 mph6.4 kmh 29.61 in1002.7 mb 0.00 in0.0 mm 0.00 in0.0 mm 0.01 in0.3 mm
08:50 AM 70.7°F21.5°C 65.3°F18.5°C 83% 2.0 mph E3.2 kmh E 6.0 mph9.7 kmh 29.60 in1002.4 mb 0.00 in0.0 mm 0.00 in0.0 mm 0.01 in0.3 mm
08:55 AM 71.1°F21.7°C 65.7°F18.7°C 83% 1.0 mph E1.6 kmh E 6.0 mph9.7 kmh 29.60 in1002.4 mb 0.00 in0.0 mm 0.00 in0.0 mm 0.01 in0.3 mm
09:00 AM 71.4°F21.9°C 65.7°F18.7°C 82% 1.0 mph E1.6 kmh E 5.0 mph8.0 kmh 29.60 in1002.4 mb 0.00 in0.0 mm 0.00 in0.0 mm 0.01 in0.3 mm
09:05 AM 72.3°F22.4°C 66.2°F19.0°C 81% 1.0 mph E1.6 kmh E 5.0 mph8.0 kmh 29.60 in1002.4 mb 0.00 in0.0 mm 0.00 in0.0 mm 0.01 in0.3 mm
09:10 AM 73.6°F23.1°C 66.7°F19.3°C 79% 1.0 mph E1.6 kmh E 4.0 mph6.4 kmh 29.60 in1002.4 mb 0.00 in0.0 mm 0.00 in0.0 mm 0.01 in0.3 mm
09:15 AM 74.7°F23.7°C 66.9°F19.4°C 77% 1.0 mph E1.6 kmh E 5.0 mph8.0 kmh 29.60 in1002.4 mb 0.00 in0.0 mm 0.00 in0.0 mm 0.01 in0.3 mm
09:20 AM 74.7°F23.7°C 66.6°F19.2°C 76% 1.0 mph E1.6 kmh E 5.0 mph8.0 kmh 29.60 in1002.4 mb 0.00 in0.0 mm 0.00 in0.0 mm 0.01 in0.3 mm
09:25 AM 75.0°F23.9°C 66.6°F19.2°C 75% 2.0 mph ENE3.2 kmh ENE 6.0 mph9.7 kmh 29.60 in1002.4 mb 0.00 in0.0 mm 0.00 in0.0 mm 0.01 in0.3 mm
09:30 AM 75.7°F24.3°C 67.3°F19.6°C 75% 2.0 mph E3.2 kmh E 6.0 mph9.7 kmh 29.60 in1002.4 mb 0.00 in0.0 mm 0.00 in0.0 mm 0.01 in0.3 mm
09:35 AM 76.3°F24.6°C 67.3°F19.6°C 74% 1.0 mph SE1.6 kmh SE 4.0 mph6.4 kmh 29.60 in1002.4 mb 0.00 in0.0 mm 0.00 in0.0 mm 0.01 in0.3 mm
09:40 AM 77.0°F25.0°C 67.6°F19.8°C 73% 1.0 mph SW1.6 kmh SW 4.0 mph6.4 kmh 29.60 in1002.4 mb 0.00 in0.0 mm 0.00 in0.0 mm 0.01 in0.3 mm
09:45 AM 77.9°F25.5°C 67.8°F19.9°C 71% Calm Calm 3.0 mph4.8 kmh 29.60 in1002.4 mb 0.00 in0.0 mm 0.00 in0.0 mm 0.01 in0.3 mm
09:50 AM 78.1°F25.6°C 68.0°F20.0°C 71% 1.0 mph SW1.6 kmh SW 7.0 mph11.3 kmh 29.60 in1002.4 mb 0.00 in0.0 mm 0.00 in0.0 mm 0.01 in0.3 mm
09:55 AM 78.3°F25.7°C 67.6°F19.8°C 70% 1.0 mph S1.6 kmh S 7.0 mph11.3 kmh 29.60 in1002.4 mb 0.00 in0.0 mm 0.00 in0.0 mm 0.01 in0.3 mm
10:00 AM 78.4°F25.8°C 67.5°F19.7°C 69% 1.0 mph E1.6 kmh E 5.0 mph8.0 kmh 29.60 in1002.4 mb 0.00 in0.0 mm 0.00 in0.0 mm 0.01 in0.3 mm
10:05 AM 79.2°F26.2°C 67.6°F19.8°C 68% 1.0 mph SSE1.6 kmh SSE 5.0 mph8.0 kmh 29.60 in1002.4 mb 0.00 in0.0 mm 0.00 in0.0 mm 0.01 in0.3 mm
10:10 AM 79.5°F26.4°C 68.4°F20.2°C 69% 1.0 mph SSE1.6 kmh SSE 4.0 mph6.4 kmh 29.60 in1002.4 mb 0.00 in0.0 mm 0.00 in0.0 mm 0.01 in0.3 mm
10:15 AM 80.1°F26.7°C 68.0°F20.0°C 67% 1.0 mph E1.6 kmh E 4.0 mph6.4 kmh 29.60 in1002.4 mb 0.00 in0.0 mm 0.00 in0.0 mm 0.01 in0.3 mm
10:20 AM 80.6°F27.0°C 68.5°F20.3°C 67% Calm Calm 3.0 mph4.8 kmh 29.60 in1002.4 mb 0.00 in0.0 mm 0.00 in0.0 mm 0.01 in0.3 mm
10:25 AM 80.2°F26.8°C 66.6°F19.2°C 63% 1.0 mph E1.6 kmh E 7.0 mph11.3 kmh 29.60 in1002.4 mb 0.00 in0.0 mm 0.00 in0.0 mm 0.01 in0.3 mm
10:30 AM 79.9°F26.6°C 66.6°F19.2°C 64% 2.0 mph ENE3.2 kmh ENE 7.0 mph11.3 kmh 29.60 in1002.4 mb 0.00 in0.0 mm 0.00 in0.0 mm 0.01 in0.3 mm
10:35 AM 80.1°F26.7°C 66.7°F19.3°C 64% 2.0 mph E3.2 kmh E 7.0 mph11.3 kmh 29.60 in1002.4 mb 0.00 in0.0 mm 0.00 in0.0 mm 0.01 in0.3 mm
10:40 AM 81.1°F27.3°C 67.8°F19.9°C 64% 2.0 mph SSW3.2 kmh SSW 5.0 mph8.0 kmh 29.60 in1002.4 mb 0.00 in0.0 mm 0.00 in0.0 mm 0.01 in0.3 mm
10:45 AM 81.5°F27.5°C 66.2°F19.0°C 60% 1.0 mph S1.6 kmh S 8.0 mph12.9 kmh 29.60 in1002.4 mb 0.00 in0.0 mm 0.00 in0.0 mm 0.01 in0.3 mm
10:50 AM 82.0°F27.8°C 66.9°F19.4°C 60% 1.0 mph SE1.6 kmh SE 8.0 mph12.9 kmh 29.60 in1002.4 mb 0.00 in0.0 mm 0.00 in0.0 mm 0.01 in0.3 mm
10:55 AM 82.6°F28.1°C 66.2°F19.0°C 58% 1.0 mph ESE1.6 kmh ESE 5.0 mph8.0 kmh 29.60 in1002.4 mb 0.00 in0.0 mm 0.00 in0.0 mm 0.01 in0.3 mm
11:00 AM 82.6°F28.1°C 67.3°F19.6°C 60% 1.0 mph E1.6 kmh E 4.0 mph6.4 kmh 29.60 in1002.4 mb 0.00 in0.0 mm 0.00 in0.0 mm 0.01 in0.3 mm
11:05 AM 82.6°F28.1°C 65.8°F18.8°C 57% 1.0 mph E1.6 kmh E 4.0 mph6.4 kmh 29.60 in1002.4 mb 0.00 in0.0 mm 0.00 in0.0 mm 0.01 in0.3 mm
11:10 AM 82.9°F28.3°C 65.7°F18.7°C 56% 1.0 mph SSE1.6 kmh SSE 4.0 mph6.4 kmh 29.60 in1002.4 mb 0.00 in0.0 mm 0.00 in0.0 mm 0.01 in0.3 mm
11:15 AM 83.5°F28.6°C 66.0°F18.9°C 56% 1.0 mph SE1.6 kmh SE 5.0 mph8.0 kmh 29.60 in1002.4 mb 0.00 in0.0 mm 0.00 in0.0 mm 0.01 in0.3 mm
11:20 AM 83.7°F28.7°C 64.6°F18.1°C 53% 1.0 mph E1.6 kmh E 5.0 mph8.0 kmh 29.60 in1002.4 mb 0.00 in0.0 mm 0.00 in0.0 mm 0.01 in0.3 mm
11:25 AM 83.7°F28.7°C 65.3°F18.5°C 54% 1.0 mph E1.6 kmh E 6.0 mph9.7 kmh 29.60 in1002.4 mb 0.00 in0.0 mm 0.00 in0.0 mm 0.01 in0.3 mm
11:30 AM 84.4°F29.1°C 65.5°F18.6°C 53% 2.0 mph SSE3.2 kmh SSE 6.0 mph9.7 kmh 29.60 in1002.4 mb 0.00 in0.0 mm 0.00 in0.0 mm 0.01 in0.3 mm
11:35 AM 84.6°F29.2°C 64.9°F18.3°C 52% 2.0 mph SSW3.2 kmh SSW 8.0 mph12.9 kmh 29.60 in1002.4 mb 0.00 in0.0 mm 0.00 in0.0 mm 0.01 in0.3 mm
11:40 AM 84.4°F29.1°C 64.2°F17.9°C 51% 3.0 mph SSW4.8 kmh SSW 9.0 mph14.5 kmh 29.60 in1002.4 mb 0.00 in0.0 mm 0.00 in0.0 mm 0.01 in0.3 mm
11:45 AM 84.7°F29.3°C 65.1°F18.4°C 52% 2.0 mph SSW3.2 kmh SSW 9.0 mph14.5 kmh 29.60 in1002.4 mb 0.00 in0.0 mm 0.00 in0.0 mm 0.01 in0.3 mm
11:50 AM 84.6°F29.2°C 64.4°F18.0°C 51% 2.0 mph NE3.2 kmh NE 8.0 mph12.9 kmh 29.60 in1002.4 mb 0.00 in0.0 mm 0.00 in0.0 mm 0.01 in0.3 mm
11:55 AM 84.6°F29.2°C 64.9°F18.3°C 52% 3.0 mph NE4.8 kmh NE 8.0 mph12.9 kmh 29.60 in1002.4 mb 0.00 in0.0 mm 0.00 in0.0 mm 0.01 in0.3 mm
12:00 PM 84.7°F29.3°C 64.6°F18.1°C 51% 1.0 mph SW1.6 kmh SW 5.0 mph8.0 kmh 29.60 in1002.4 mb 0.00 in0.0 mm 0.00 in0.0 mm 0.01 in0.3 mm
12:05 PM 85.1°F29.5°C 64.9°F18.3°C 51% 1.0 mph SW1.6 kmh SW 4.0 mph6.4 kmh 29.60 in1002.4 mb 0.00 in0.0 mm 0.00 in0.0 mm 0.01 in0.3 mm
12:10 PM 84.9°F29.4°C 64.2°F17.9°C 50% 2.0 mph E3.2 kmh E 6.0 mph9.7 kmh 29.59 in1002.0 mb 0.00 in0.0 mm 0.00 in0.0 mm 0.01 in0.3 mm
12:15 PM 85.1°F29.5°C 64.9°F18.3°C 51% 3.0 mph S4.8 kmh S 9.0 mph14.5 kmh 29.59 in1002.0 mb 0.00 in0.0 mm 0.00 in0.0 mm 0.01 in0.3 mm
12:20 PM 85.6°F29.8°C 64.9°F18.3°C 50% 2.0 mph SW3.2 kmh SW 9.0 mph14.5 kmh 29.59 in1002.0 mb 0.00 in0.0 mm 0.00 in0.0 mm 0.01 in0.3 mm
12:25 PM 85.8°F29.9°C 63.9°F17.7°C 48% 1.0 mph S1.6 kmh S 4.0 mph6.4 kmh 29.59 in1002.0 mb 0.00 in0.0 mm 0.00 in0.0 mm 0.01 in0.3 mm
12:30 PM 85.6°F29.8°C 63.7°F17.6°C 48% 1.0 mph ENE1.6 kmh ENE 4.0 mph6.4 kmh 29.59 in1002.0 mb 0.00 in0.0 mm 0.00 in0.0 mm 0.01 in0.3 mm
12:35 PM 85.8°F29.9°C 63.9°F17.7°C 48% Calm Calm 4.0 mph6.4 kmh 29.59 in1002.0 mb 0.00 in0.0 mm 0.00 in0.0 mm 0.01 in0.3 mm
12:40 PM 86.0°F30.0°C 64.6°F18.1°C 49% Calm Calm 2.0 mph3.2 kmh 29.59 in1002.0 mb 0.00 in0.0 mm 0.00 in0.0 mm 0.01 in0.3 mm
12:45 PM 87.1°F30.6°C 64.4°F18.0°C 47% Calm Calm 6.0 mph9.7 kmh 29.58 in1001.7 mb 0.00 in0.0 mm 0.00 in0.0 mm 0.01 in0.3 mm
12:50 PM 86.5°F30.3°C 65.1°F18.4°C 49% 1.0 mph SE1.6 kmh SE 6.0 mph9.7 kmh 29.58 in1001.7 mb 0.00 in0.0 mm 0.00 in0.0 mm 0.01 in0.3 mm
12:55 PM 86.5°F30.3°C 65.1°F18.4°C 49% 2.0 mph SSW3.2 kmh SSW 6.0 mph9.7 kmh 29.58 in1001.7 mb 0.00 in0.0 mm 0.00 in0.0 mm 0.01 in0.3 mm
01:00 PM 86.5°F30.3°C 65.1°F18.4°C 49% 2.0 mph ENE3.2 kmh ENE 7.0 mph11.3 kmh 29.58 in1001.7 mb 0.00 in0.0 mm 0.00 in0.0 mm 0.01 in0.3 mm
01:05 PM 86.7°F30.4°C 64.6°F18.1°C 48% 2.0 mph ENE3.2 kmh ENE 7.0 mph11.3 kmh 29.59 in1002.0 mb 0.00 in0.0 mm 0.00 in0.0 mm 0.01 in0.3 mm
01:10 PM 87.3°F30.7°C 65.1°F18.4°C 48% 1.0 mph E1.6 kmh E 6.0 mph9.7 kmh 29.59 in1002.0 mb 0.00 in0.0 mm 0.00 in0.0 mm 0.01 in0.3 mm
01:15 PM 87.4°F30.8°C 64.8°F18.2°C 47% 1.0 mph S1.6 kmh S 7.0 mph11.3 kmh 29.59 in1002.0 mb 0.00 in0.0 mm 0.00 in0.0 mm 0.01 in0.3 mm
01:20 PM 87.3°F30.7°C 64.6°F18.1°C 47% 3.0 mph SSW4.8 kmh SSW 7.0 mph11.3 kmh 29.59 in1002.0 mb 0.00 in0.0 mm 0.00 in0.0 mm 0.01 in0.3 mm
01:25 PM 87.3°F30.7°C 64.6°F18.1°C 47% 3.0 mph SW4.8 kmh SW 6.0 mph9.7 kmh 29.59 in1002.0 mb 0.00 in0.0 mm 0.00 in0.0 mm 0.01 in0.3 mm
01:30 PM 88.2°F31.2°C 65.3°F18.5°C 47% 1.0 mph SW1.6 kmh SW 5.0 mph8.0 kmh 29.59 in1002.0 mb 0.00 in0.0 mm 0.00 in0.0 mm 0.01 in0.3 mm
01:35 PM 87.8°F31.0°C 64.4°F18.0°C 46% 1.0 mph E1.6 kmh E 7.0 mph11.3 kmh 29.59 in1002.0 mb 0.00 in0.0 mm 0.00 in0.0 mm 0.01 in0.3 mm
01:40 PM 88.2°F31.2°C 65.3°F18.5°C 47% 1.0 mph E1.6 kmh E 7.0 mph11.3 kmh 29.58 in1001.7 mb 0.00 in0.0 mm 0.00 in0.0 mm 0.01 in0.3 mm
01:45 PM 88.2°F31.2°C 64.0°F17.8°C 45% 1.0 mph WSW1.6 kmh WSW 5.0 mph8.0 kmh 29.58 in1001.7 mb 0.00 in0.0 mm 0.00 in0.0 mm 0.01 in0.3 mm
01:50 PM 88.5°F31.4°C 64.6°F18.1°C 45% 1.0 mph E1.6 kmh E 7.0 mph11.3 kmh 29.58 in1001.7 mb 0.00 in0.0 mm 0.00 in0.0 mm 0.01 in0.3 mm
01:55 PM 88.3°F31.3°C 65.5°F18.6°C 47% 1.0 mph E1.6 kmh E 7.0 mph11.3 kmh 29.58 in1001.7 mb 0.00 in0.0 mm 0.00 in0.0 mm 0.01 in0.3 mm
02:00 PM 88.5°F31.4°C 64.6°F18.1°C 45% 2.0 mph SSE3.2 kmh SSE 7.0 mph11.3 kmh 29.58 in1001.7 mb 0.00 in0.0 mm 0.00 in0.0 mm 0.01 in0.3 mm
02:05 PM 88.5°F31.4°C 65.7°F18.7°C 47% 2.0 mph SE3.2 kmh SE 7.0 mph11.3 kmh 29.58 in1001.7 mb 0.00 in0.0 mm 0.00 in0.0 mm 0.01 in0.3 mm
02:10 PM 88.5°F31.4°C 64.4°F18.0°C 45% 1.0 mph S1.6 kmh S 6.0 mph9.7 kmh 29.58 in1001.7 mb 0.00 in0.0 mm 0.00 in0.0 mm 0.01 in0.3 mm
02:15 PM 88.2°F31.2°C 64.2°F17.9°C 45% 1.0 mph W1.6 kmh W 5.0 mph8.0 kmh 29.58 in1001.7 mb 0.00 in0.0 mm 0.00 in0.0 mm 0.01 in0.3 mm
02:20 PM 88.5°F31.4°C 65.1°F18.4°C 46% 1.0 mph W1.6 kmh W 5.0 mph8.0 kmh 29.57 in1001.4 mb 0.00 in0.0 mm 0.00 in0.0 mm 0.01 in0.3 mm
02:25 PM 88.5°F31.4°C 65.1°F18.4°C 46% 1.0 mph ENE1.6 kmh ENE 6.0 mph9.7 kmh 29.57 in1001.4 mb 0.00 in0.0 mm 0.00 in0.0 mm 0.01 in0.3 mm
02:30 PM 88.2°F31.2°C 64.8°F18.2°C 46% 3.0 mph NE4.8 kmh NE 8.0 mph12.9 kmh 29.57 in1001.4 mb 0.00 in0.0 mm 0.00 in0.0 mm 0.01 in0.3 mm
02:35 PM 88.0°F31.1°C 65.3°F18.5°C 47% 4.0 mph ENE6.4 kmh ENE 8.0 mph12.9 kmh 29.57 in1001.4 mb 0.00 in0.0 mm 0.00 in0.0 mm 0.01 in0.3 mm
02:40 PM 87.6°F30.9°C 64.9°F18.3°C 47% 4.0 mph ENE6.4 kmh ENE 8.0 mph12.9 kmh 29.57 in1001.4 mb 0.00 in0.0 mm 0.00 in0.0 mm 0.01 in0.3 mm
02:45 PM 87.4°F30.8°C 64.8°F18.2°C 47% 4.0 mph ENE6.4 kmh ENE 9.0 mph14.5 kmh 29.57 in1001.4 mb 0.00 in0.0 mm 0.00 in0.0 mm 0.01 in0.3 mm
02:50 PM 87.4°F30.8°C 64.8°F18.2°C 47% 4.0 mph ENE6.4 kmh ENE 9.0 mph14.5 kmh 29.57 in1001.4 mb 0.00 in0.0 mm 0.00 in0.0 mm 0.01 in0.3 mm
02:55 PM 87.6°F30.9°C 65.5°F18.6°C 48% 4.0 mph ENE6.4 kmh ENE 9.0 mph14.5 kmh 29.57 in1001.4 mb 0.00 in0.0 mm 0.00 in0.0 mm 0.01 in0.3 mm
03:00 PM 87.8°F31.0°C 64.4°F18.0°C 46% 3.0 mph E4.8 kmh E 9.0 mph14.5 kmh 29.57 in1001.4 mb 0.00 in0.0 mm 0.00 in0.0 mm 0.01 in0.3 mm
03:05 PM 87.6°F30.9°C 64.4°F18.0°C 46% 2.0 mph E3.2 kmh E 7.0 mph11.3 kmh 29.57 in1001.4 mb 0.00 in0.0 mm 0.00 in0.0 mm 0.01 in0.3 mm
03:10 PM 88.2°F31.2°C 64.8°F18.2°C 46% 2.0 mph E3.2 kmh E 7.0 mph11.3 kmh 29.57 in1001.4 mb 0.00 in0.0 mm 0.00 in0.0 mm 0.01 in0.3 mm
03:15 PM 88.2°F31.2°C 64.0°F17.8°C 45% 2.0 mph E3.2 kmh E 8.0 mph12.9 kmh 29.57 in1001.4 mb 0.00 in0.0 mm 0.00 in0.0 mm 0.01 in0.3 mm
03:20 PM 88.0°F31.1°C 64.0°F17.8°C 45% 3.0 mph ENE4.8 kmh ENE 8.0 mph12.9 kmh 29.57 in1001.4 mb 0.00 in0.0 mm 0.00 in0.0 mm 0.01 in0.3 mm
03:25 PM 87.6°F30.9°C 64.4°F18.0°C 46% 3.0 mph ENE4.8 kmh ENE 7.0 mph11.3 kmh 29.56 in1001.0 mb 0.00 in0.0 mm 0.00 in0.0 mm 0.01 in0.3 mm
03:30 PM 88.2°F31.2°C 64.2°F17.9°C 45% 3.0 mph E4.8 kmh E 6.0 mph9.7 kmh 29.56 in1001.0 mb 0.00 in0.0 mm 0.00 in0.0 mm 0.01 in0.3 mm
03:35 PM 88.5°F31.4°C 65.1°F18.4°C 46% 2.0 mph E3.2 kmh E 5.0 mph8.0 kmh 29.56 in1001.0 mb 0.00 in0.0 mm 0.00 in0.0 mm 0.01 in0.3 mm
03:40 PM 88.7°F31.5°C 64.6°F18.1°C 45% 2.0 mph E3.2 kmh E 6.0 mph9.7 kmh 29.56 in1001.0 mb 0.00 in0.0 mm 0.00 in0.0 mm 0.01 in0.3 mm
03:45 PM 89.1°F31.7°C 64.9°F18.3°C 45% 2.0 mph ENE3.2 kmh ENE 6.0 mph9.7 kmh 29.56 in1001.0 mb 0.00 in0.0 mm 0.00 in0.0 mm 0.01 in0.3 mm
03:50 PM 89.2°F31.8°C 64.6°F18.1°C 44% 1.0 mph E1.6 kmh E 5.0 mph8.0 kmh 29.56 in1001.0 mb 0.00 in0.0 mm 0.00 in0.0 mm 0.01 in0.3 mm
03:55 PM 89.2°F31.8°C 64.6°F18.1°C 44% 1.0 mph E1.6 kmh E 5.0 mph8.0 kmh 29.55 in1000.7 mb 0.00 in0.0 mm 0.00 in0.0 mm 0.01 in0.3 mm
04:00 PM 88.9°F31.6°C 64.8°F18.2°C 45% 1.0 mph ENE1.6 kmh ENE 5.0 mph8.0 kmh 29.55 in1000.7 mb 0.00 in0.0 mm 0.00 in0.0 mm 0.01 in0.3 mm
04:05 PM 88.3°F31.3°C 64.4°F18.0°C 45% 3.0 mph ENE4.8 kmh ENE 9.0 mph14.5 kmh 29.55 in1000.7 mb 0.00 in0.0 mm 0.00 in0.0 mm 0.01 in0.3 mm
04:10 PM 88.2°F31.2°C 64.2°F17.9°C 45% 3.0 mph ENE4.8 kmh ENE 9.0 mph14.5 kmh 29.55 in1000.7 mb 0.00 in0.0 mm 0.00 in0.0 mm 0.01 in0.3 mm
04:15 PM 88.2°F31.2°C 64.2°F17.9°C 45% 3.0 mph E4.8 kmh E 8.0 mph12.9 kmh 29.55 in1000.7 mb 0.00 in0.0 mm 0.00 in0.0 mm 0.01 in0.3 mm
04:20 PM 88.2°F31.2°C 63.5°F17.5°C 44% 2.0 mph E3.2 kmh E 7.0 mph11.3 kmh 29.55 in1000.7 mb 0.00 in0.0 mm 0.00 in0.0 mm 0.01 in0.3 mm
04:25 PM 88.0°F31.1°C 63.3°F17.4°C 44% 3.0 mph ENE4.8 kmh ENE 7.0 mph11.3 kmh 29.54 in1000.3 mb 0.00 in0.0 mm 0.00 in0.0 mm 0.01 in0.3 mm
04:30 PM 88.2°F31.2°C 63.5°F17.5°C 44% 3.0 mph ENE4.8 kmh ENE 8.0 mph12.9 kmh 29.54 in1000.3 mb 0.00 in0.0 mm 0.00 in0.0 mm 0.01 in0.3 mm
04:35 PM 88.0°F31.1°C 63.3°F17.4°C 44% 3.0 mph E4.8 kmh E 9.0 mph14.5 kmh 29.54 in1000.3 mb 0.00 in0.0 mm 0.00 in0.0 mm 0.01 in0.3 mm
04:40 PM 87.8°F31.0°C 63.1°F17.3°C 44% 5.0 mph ENE8.0 kmh ENE 11.0 mph17.7 kmh 29.54 in1000.3 mb 0.00 in0.0 mm 0.00 in0.0 mm 0.01 in0.3 mm
04:45 PM 87.8°F31.0°C 63.9°F17.7°C 45% 5.0 mph ENE8.0 kmh ENE 11.0 mph17.7 kmh 29.54 in1000.3 mb 0.00 in0.0 mm 0.00 in0.0 mm 0.01 in0.3 mm
04:50 PM 88.0°F31.1°C 63.9°F17.7°C 45% 4.0 mph ENE6.4 kmh ENE 8.0 mph12.9 kmh 29.54 in1000.3 mb 0.00 in0.0 mm 0.00 in0.0 mm 0.01 in0.3 mm
04:55 PM 87.6°F30.9°C 63.7°F17.6°C 45% 4.0 mph ENE6.4 kmh ENE 10.0 mph16.1 kmh 29.54 in1000.3 mb 0.00 in0.0 mm 0.00 in0.0 mm 0.01 in0.3 mm
05:00 PM 87.4°F30.8°C 63.5°F17.5°C 45% 4.0 mph ENE6.4 kmh ENE 10.0 mph16.1 kmh 29.54 in1000.3 mb 0.00 in0.0 mm 0.00 in0.0 mm 0.01 in0.3 mm
05:05 PM 87.3°F30.7°C 63.3°F17.4°C 45% 4.0 mph ENE6.4 kmh ENE 10.0 mph16.1 kmh 29.54 in1000.3 mb 0.00 in0.0 mm 0.00 in0.0 mm 0.01 in0.3 mm
05:10 PM 87.1°F30.6°C 63.1°F17.3°C 45% 4.0 mph ENE6.4 kmh ENE 9.0 mph14.5 kmh 29.54 in1000.3 mb 0.00 in0.0 mm 0.00 in0.0 mm 0.01 in0.3 mm
05:15 PM 87.1°F30.6°C 63.1°F17.3°C 45% 3.0 mph ENE4.8 kmh ENE 9.0 mph14.5 kmh 29.54 in1000.3 mb 0.00 in0.0 mm 0.00 in0.0 mm 0.01 in0.3 mm
05:20 PM 87.1°F30.6°C 63.9°F17.7°C 46% 3.0 mph E4.8 kmh E 9.0 mph14.5 kmh 29.54 in1000.3 mb 0.00 in0.0 mm 0.00 in0.0 mm 0.01 in0.3 mm
05:25 PM 87.1°F30.6°C 63.7°F17.6°C 46% 4.0 mph E6.4 kmh E 9.0 mph14.5 kmh 29.54 in1000.3 mb 0.00 in0.0 mm 0.00 in0.0 mm 0.01 in0.3 mm
05:30 PM 86.7°F30.4°C 63.5°F17.5°C 46% 4.0 mph ENE6.4 kmh ENE 8.0 mph12.9 kmh 29.54 in1000.3 mb 0.00 in0.0 mm 0.00 in0.0 mm 0.01 in0.3 mm
05:35 PM 86.5°F30.3°C 64.0°F17.8°C 47% 3.0 mph E4.8 kmh E 7.0 mph11.3 kmh 29.55 in1000.7 mb 0.00 in0.0 mm 0.00 in0.0 mm 0.01 in0.3 mm
05:40 PM 86.5°F30.3°C 63.3°F17.4°C 46% 3.0 mph E4.8 kmh E 6.0 mph9.7 kmh 29.55 in1000.7 mb 0.00 in0.0 mm 0.00 in0.0 mm 0.01 in0.3 mm
05:45 PM 86.2°F30.1°C 63.7°F17.6°C 47% 3.0 mph E4.8 kmh E 6.0 mph9.7 kmh 29.55 in1000.7 mb 0.00 in0.0 mm 0.00 in0.0 mm 0.01 in0.3 mm
05:50 PM 85.8°F29.9°C 63.3°F17.4°C 47% 2.0 mph E3.2 kmh E 5.0 mph8.0 kmh 29.55 in1000.7 mb 0.00 in0.0 mm 0.00 in0.0 mm 0.01 in0.3 mm
05:55 PM 85.8°F29.9°C 63.3°F17.4°C 47% 2.0 mph E3.2 kmh E 6.0 mph9.7 kmh 29.55 in1000.7 mb 0.00 in0.0 mm 0.00 in0.0 mm 0.01 in0.3 mm
06:00 PM 85.6°F29.8°C 63.1°F17.3°C 47% 3.0 mph E4.8 kmh E 6.0 mph9.7 kmh 29.55 in1000.7 mb 0.00 in0.0 mm 0.00 in0.0 mm 0.01 in0.3 mm
06:05 PM 85.6°F29.8°C 63.1°F17.3°C 47% 3.0 mph ENE4.8 kmh ENE 5.0 mph8.0 kmh 29.55 in1000.7 mb 0.00 in0.0 mm 0.00 in0.0 mm 0.01 in0.3 mm
06:10 PM 85.8°F29.9°C 63.3°F17.4°C 47% 3.0 mph ENE4.8 kmh ENE 8.0 mph12.9 kmh 29.55 in1000.7 mb 0.00 in0.0 mm 0.00 in0.0 mm 0.01 in0.3 mm
06:15 PM 85.8°F29.9°C 63.3°F17.4°C 47% 3.0 mph ENE4.8 kmh ENE 8.0 mph12.9 kmh 29.55 in1000.7 mb 0.00 in0.0 mm 0.00 in0.0 mm 0.01 in0.3 mm
06:20 PM 85.8°F29.9°C 63.9°F17.7°C 48% 3.0 mph ENE4.8 kmh ENE 7.0 mph11.3 kmh 29.55 in1000.7 mb 0.00 in0.0 mm 0.00 in0.0 mm 0.01 in0.3 mm
06:25 PM 85.8°F29.9°C 63.9°F17.7°C 48% 2.0 mph ENE3.2 kmh ENE 5.0 mph8.0 kmh 29.55 in1000.7 mb 0.00 in0.0 mm 0.00 in0.0 mm 0.01 in0.3 mm
06:30 PM 85.6°F29.8°C 64.4°F18.0°C 49% 2.0 mph ENE3.2 kmh ENE 5.0 mph8.0 kmh 29.55 in1000.7 mb 0.00 in0.0 mm 0.00 in0.0 mm 0.01 in0.3 mm
06:35 PM 85.5°F29.7°C 64.2°F17.9°C 49% 2.0 mph ENE3.2 kmh ENE 7.0 mph11.3 kmh 29.55 in1000.7 mb 0.00 in0.0 mm 0.00 in0.0 mm 0.01 in0.3 mm
06:40 PM 85.3°F29.6°C 64.6°F18.1°C 50% 3.0 mph ENE4.8 kmh ENE 7.0 mph11.3 kmh 29.55 in1000.7 mb 0.00 in0.0 mm 0.00 in0.0 mm 0.01 in0.3 mm
06:45 PM 85.3°F29.6°C 64.9°F18.3°C 51% 3.0 mph ENE4.8 kmh ENE 8.0 mph12.9 kmh 29.55 in1000.7 mb 0.00 in0.0 mm 0.00 in0.0 mm 0.01 in0.3 mm
06:50 PM 84.9°F29.4°C 64.8°F18.2°C 51% 3.0 mph ENE4.8 kmh ENE 8.0 mph12.9 kmh 29.55 in1000.7 mb 0.00 in0.0 mm 0.00 in0.0 mm 0.01 in0.3 mm
06:55 PM 84.7°F29.3°C 65.1°F18.4°C 52% 2.0 mph ENE3.2 kmh ENE 6.0 mph9.7 kmh 29.55 in1000.7 mb 0.00 in0.0 mm 0.00 in0.0 mm 0.01 in0.3 mm
07:00 PM 84.6°F29.2°C 64.9°F18.3°C 52% 2.0 mph ENE3.2 kmh ENE 6.0 mph9.7 kmh 29.55 in1000.7 mb 0.00 in0.0 mm 0.00 in0.0 mm 0.01 in0.3 mm
07:05 PM 84.4°F29.1°C 64.8°F18.2°C 52% 1.0 mph E1.6 kmh E 3.0 mph4.8 kmh 29.56 in1001.0 mb 0.00 in0.0 mm 0.00 in0.0 mm 0.01 in0.3 mm
07:10 PM 84.0°F28.9°C 65.1°F18.4°C 53% 1.0 mph E1.6 kmh E 4.0 mph6.4 kmh 29.56 in1001.0 mb 0.00 in0.0 mm 0.00 in0.0 mm 0.01 in0.3 mm
07:15 PM 83.8°F28.8°C 65.5°F18.6°C 54% 2.0 mph ENE3.2 kmh ENE 4.0 mph6.4 kmh 29.56 in1001.0 mb 0.00 in0.0 mm 0.00 in0.0 mm 0.01 in0.3 mm
07:20 PM 83.7°F28.7°C 65.1°F18.4°C 54% 2.0 mph ENE3.2 kmh ENE 4.0 mph6.4 kmh 29.57 in1001.4 mb 0.00 in0.0 mm 0.00 in0.0 mm 0.01 in0.3 mm
07:25 PM 83.5°F28.6°C 65.1°F18.4°C 54% 2.0 mph ENE3.2 kmh ENE 4.0 mph6.4 kmh 29.57 in1001.4 mb 0.00 in0.0 mm 0.00 in0.0 mm 0.01 in0.3 mm
07:30 PM 83.1°F28.4°C 65.3°F18.5°C 55% 2.0 mph ENE3.2 kmh ENE 4.0 mph6.4 kmh 29.57 in1001.4 mb 0.00 in0.0 mm 0.00 in0.0 mm 0.01 in0.3 mm
07:35 PM 82.6°F28.1°C 65.8°F18.8°C 57% 2.0 mph NE3.2 kmh NE 6.0 mph9.7 kmh 29.57 in1001.4 mb 0.00 in0.0 mm 0.00 in0.0 mm 0.01 in0.3 mm
07:40 PM 81.9°F27.7°C 65.7°F18.7°C 58% 1.0 mph NE1.6 kmh NE 6.0 mph9.7 kmh 29.57 in1001.4 mb 0.00 in0.0 mm 0.00 in0.0 mm 0.01 in0.3 mm
07:45 PM 81.1°F27.3°C 65.8°F18.8°C 60% Calm Calm 3.0 mph4.8 kmh 29.57 in1001.4 mb 0.00 in0.0 mm 0.00 in0.0 mm 0.01 in0.3 mm
07:50 PM 80.4°F26.9°C 65.8°F18.8°C 61% 1.0 mph NE1.6 kmh NE 3.0 mph4.8 kmh 29.57 in1001.4 mb 0.00 in0.0 mm 0.00 in0.0 mm 0.01 in0.3 mm
07:55 PM 80.2°F26.8°C 66.0°F18.9°C 62% 2.0 mph NE3.2 kmh NE 4.0 mph6.4 kmh 29.57 in1001.4 mb 0.00 in0.0 mm 0.00 in0.0 mm 0.01 in0.3 mm
08:00 PM 80.2°F26.8°C 65.5°F18.6°C 61% 2.0 mph NE3.2 kmh NE 4.0 mph6.4 kmh 29.57 in1001.4 mb 0.00 in0.0 mm 0.00 in0.0 mm 0.01 in0.3 mm
08:05 PM 80.4°F26.9°C 65.3°F18.5°C 60% 2.0 mph NE3.2 kmh NE 4.0 mph6.4 kmh 29.57 in1001.4 mb 0.00 in0.0 mm 0.00 in0.0 mm 0.01 in0.3 mm
08:10 PM 80.4°F26.9°C 65.3°F18.5°C 60% 2.0 mph NE3.2 kmh NE 4.0 mph6.4 kmh 29.57 in1001.4 mb 0.00 in0.0 mm 0.00 in0.0 mm 0.01 in0.3 mm
08:15 PM 80.2°F26.8°C 65.1°F18.4°C 60% 3.0 mph NE4.8 kmh NE 5.0 mph8.0 kmh 29.57 in1001.4 mb 0.00 in0.0 mm 0.00 in0.0 mm 0.01 in0.3 mm
08:20 PM 79.9°F26.6°C 65.1°F18.4°C 61% 3.0 mph NE4.8 kmh NE 5.0 mph8.0 kmh 29.57 in1001.4 mb 0.00 in0.0 mm 0.00 in0.0 mm 0.01 in0.3 mm
08:25 PM 79.5°F26.4°C 64.9°F18.3°C 61% 3.0 mph NE4.8 kmh NE 6.0 mph9.7 kmh 29.57 in1001.4 mb 0.00 in0.0 mm 0.00 in0.0 mm 0.01 in0.3 mm
08:30 PM 79.5°F26.4°C 64.9°F18.3°C 61% 4.0 mph NE6.4 kmh NE 6.0 mph9.7 kmh 29.57 in1001.4 mb 0.00 in0.0 mm 0.00 in0.0 mm 0.01 in0.3 mm
08:35 PM 79.7°F26.5°C 65.1°F18.4°C 61% 4.0 mph NE6.4 kmh NE 7.0 mph11.3 kmh 29.57 in1001.4 mb 0.00 in0.0 mm 0.00 in0.0 mm 0.01 in0.3 mm
08:40 PM 79.5°F26.4°C 64.9°F18.3°C 61% 4.0 mph NE6.4 kmh NE 8.0 mph12.9 kmh 29.57 in1001.4 mb 0.00 in0.0 mm 0.00 in0.0 mm 0.01 in0.3 mm
08:45 PM 79.2°F26.2°C 65.1°F18.4°C 62% 4.0 mph NE6.4 kmh NE 8.0 mph12.9 kmh 29.57 in1001.4 mb 0.00 in0.0 mm 0.00 in0.0 mm 0.01 in0.3 mm
08:50 PM 79.2°F26.2°C 64.9°F18.3°C 62% 4.0 mph NE6.4 kmh NE 7.0 mph11.3 kmh 29.57 in1001.4 mb 0.00 in0.0 mm 0.00 in0.0 mm 0.01 in0.3 mm
08:55 PM 79.0°F26.1°C 64.9°F18.3°C 62% 4.0 mph NE6.4 kmh NE 8.0 mph12.9 kmh 29.57 in1001.4 mb 0.00 in0.0 mm 0.00 in0.0 mm 0.01 in0.3 mm
09:00 PM 79.2°F26.2°C 65.5°F18.6°C 63% 4.0 mph NE6.4 kmh NE 8.0 mph12.9 kmh 29.57 in1001.4 mb 0.00 in0.0 mm 0.00 in0.0 mm 0.01 in0.3 mm
09:05 PM 79.5°F26.4°C 65.8°F18.8°C 63% 4.0 mph NE6.4 kmh NE 8.0 mph12.9 kmh 29.57 in1001.4 mb 0.00 in0.0 mm 0.00 in0.0 mm 0.01 in0.3 mm
09:10 PM 79.5°F26.4°C 65.8°F18.8°C 63% 4.0 mph ENE6.4 kmh ENE 7.0 mph11.3 kmh 29.57 in1001.4 mb 0.00 in0.0 mm 0.00 in0.0 mm 0.01 in0.3 mm
09:15 PM 79.2°F26.2°C 66.0°F18.9°C 64% 3.0 mph ENE4.8 kmh ENE 6.0 mph9.7 kmh 29.57 in1001.4 mb 0.00 in0.0 mm 0.00 in0.0 mm 0.01 in0.3 mm
09:20 PM 79.0°F26.1°C 66.6°F19.2°C 66% 3.0 mph E4.8 kmh E 8.0 mph12.9 kmh 29.58 in1001.7 mb 0.00 in0.0 mm 0.00 in0.0 mm 0.01 in0.3 mm
09:25 PM 78.6°F25.9°C 66.7°F19.3°C 67% 3.0 mph SSW4.8 kmh SSW 8.0 mph12.9 kmh 29.58 in1001.7 mb 0.00 in0.0 mm 0.00 in0.0 mm 0.01 in0.3 mm
09:30 PM 78.4°F25.8°C 66.6°F19.2°C 67% 2.0 mph SSW3.2 kmh SSW 6.0 mph9.7 kmh 29.58 in1001.7 mb 0.00 in0.0 mm 0.00 in0.0 mm 0.01 in0.3 mm
09:35 PM 78.3°F25.7°C 66.9°F19.4°C 68% 2.0 mph SSW3.2 kmh SSW 5.0 mph8.0 kmh 29.58 in1001.7 mb 0.00 in0.0 mm 0.00 in0.0 mm 0.01 in0.3 mm
09:40 PM 78.1°F25.6°C 66.7°F19.3°C 68% 1.0 mph SW1.6 kmh SW 3.0 mph4.8 kmh 29.58 in1001.7 mb 0.00 in0.0 mm 0.00 in0.0 mm 0.01 in0.3 mm
09:45 PM 77.7°F25.4°C 66.7°F19.3°C 69% 1.0 mph SSW1.6 kmh SSW 7.0 mph11.3 kmh 29.58 in1001.7 mb 0.00 in0.0 mm 0.00 in0.0 mm 0.01 in0.3 mm
09:50 PM 77.5°F25.3°C 66.9°F19.4°C 70% 1.0 mph SSW1.6 kmh SSW 7.0 mph11.3 kmh 29.58 in1001.7 mb 0.00 in0.0 mm 0.00 in0.0 mm 0.01 in0.3 mm
09:55 PM 77.2°F25.1°C 66.7°F19.3°C 70% 1.0 mph SSW1.6 kmh SSW 4.0 mph6.4 kmh 29.58 in1001.7 mb 0.00 in0.0 mm 0.00 in0.0 mm 0.01 in0.3 mm
10:00 PM 76.8°F24.9°C 66.7°F19.3°C 71% Calm Calm 4.0 mph6.4 kmh 29.58 in1001.7 mb 0.00 in0.0 mm 0.00 in0.0 mm 0.01 in0.3 mm
10:05 PM 76.5°F24.7°C 66.4°F19.1°C 71% 1.0 mph SW1.6 kmh SW 3.0 mph4.8 kmh 29.59 in1002.0 mb 0.00 in0.0 mm 0.00 in0.0 mm 0.01 in0.3 mm
10:10 PM 76.3°F24.6°C 66.2°F19.0°C 71% 2.0 mph SW3.2 kmh SW 5.0 mph8.0 kmh 29.59 in1002.0 mb 0.00 in0.0 mm 0.00 in0.0 mm 0.01 in0.3 mm
10:15 PM 75.9°F24.4°C 65.8°F18.8°C 71% 2.0 mph SW3.2 kmh SW 5.0 mph8.0 kmh 29.59 in1002.0 mb 0.00 in0.0 mm 0.00 in0.0 mm 0.01 in0.3 mm
10:20 PM 75.6°F24.2°C 65.5°F18.6°C 71% 1.0 mph SW1.6 kmh SW 4.0 mph6.4 kmh 29.59 in1002.0 mb 0.00 in0.0 mm 0.00 in0.0 mm 0.01 in0.3 mm
10:25 PM 75.4°F24.1°C 65.7°F18.7°C 72% 1.0 mph SW1.6 kmh SW 4.0 mph6.4 kmh 29.60 in1002.4 mb 0.00 in0.0 mm 0.00 in0.0 mm 0.01 in0.3 mm
10:30 PM 74.8°F23.8°C 65.7°F18.7°C 73% 1.0 mph SW1.6 kmh SW 4.0 mph6.4 kmh 29.60 in1002.4 mb 0.00 in0.0 mm 0.00 in0.0 mm 0.01 in0.3 mm
10:35 PM 74.8°F23.8°C 65.5°F18.6°C 73% Calm Calm 4.0 mph6.4 kmh 29.60 in1002.4 mb 0.00 in0.0 mm 0.00 in0.0 mm 0.01 in0.3 mm
10:40 PM 74.7°F23.7°C 65.3°F18.5°C 73% 1.0 mph SW1.6 kmh SW 3.0 mph4.8 kmh 29.60 in1002.4 mb 0.00 in0.0 mm 0.00 in0.0 mm 0.01 in0.3 mm
10:45 PM 74.5°F23.6°C 65.3°F18.5°C 73% 1.0 mph SW1.6 kmh SW 7.0 mph11.3 kmh 29.60 in1002.4 mb 0.00 in0.0 mm 0.00 in0.0 mm 0.01 in0.3 mm
10:50 PM 74.1°F23.4°C 65.3°F18.5°C 74% 1.0 mph SW1.6 kmh SW 7.0 mph11.3 kmh 29.60 in1002.4 mb 0.00 in0.0 mm 0.00 in0.0 mm 0.01 in0.3 mm
10:55 PM 73.9°F23.3°C 65.1°F18.4°C 74% Calm Calm 4.0 mph6.4 kmh 29.60 in1002.4 mb 0.00 in0.0 mm 0.00 in0.0 mm 0.01 in0.3 mm
11:00 PM 73.8°F23.2°C 65.3°F18.5°C 75% Calm Calm 1.0 mph1.6 kmh 29.60 in1002.4 mb 0.00 in0.0 mm 0.00 in0.0 mm 0.01 in0.3 mm
11:05 PM 73.6°F23.1°C 65.5°F18.6°C 76% Calm Calm 3.0 mph4.8 kmh 29.60 in1002.4 mb 0.00 in0.0 mm 0.00 in0.0 mm 0.01 in0.3 mm
11:10 PM 73.0°F22.8°C 65.1°F18.4°C 76% 1.0 mph SW1.6 kmh SW 3.0 mph4.8 kmh 29.61 in1002.7 mb 0.00 in0.0 mm 0.00 in0.0 mm 0.01 in0.3 mm
11:15 PM 72.7°F22.6°C 65.3°F18.5°C 78% 1.0 mph SW1.6 kmh SW 4.0 mph6.4 kmh 29.62 in1003.0 mb 0.00 in0.0 mm 0.00 in0.0 mm 0.01 in0.3 mm
11:20 PM 72.7°F22.6°C 65.3°F18.5°C 78% 2.0 mph SW3.2 kmh SW 5.0 mph8.0 kmh 29.62 in1003.0 mb 0.00 in0.0 mm 0.00 in0.0 mm 0.01 in0.3 mm
11:25 PM 72.5°F22.5°C 65.3°F18.5°C 78% 2.0 mph SW3.2 kmh SW 5.0 mph8.0 kmh 29.62 in1003.0 mb 0.00 in0.0 mm 0.00 in0.0 mm 0.01 in0.3 mm
11:30 PM 72.3°F22.4°C 65.1°F18.4°C 78% 1.0 mph SW1.6 kmh SW 3.0 mph4.8 kmh 29.62 in1003.0 mb 0.00 in0.0 mm 0.00 in0.0 mm 0.01 in0.3 mm
11:35 PM 72.1°F22.3°C 65.3°F18.5°C 79% 1.0 mph SW1.6 kmh SW 3.0 mph4.8 kmh 29.62 in1003.0 mb 0.00 in0.0 mm 0.00 in0.0 mm 0.01 in0.3 mm
11:40 PM 72.0°F22.2°C 65.5°F18.6°C 80% 1.0 mph SW1.6 kmh SW 3.0 mph4.8 kmh 29.62 in1003.0 mb 0.00 in0.0 mm 0.00 in0.0 mm 0.01 in0.3 mm
11:45 PM 71.8°F22.1°C 65.1°F18.4°C 80% Calm Calm 2.0 mph3.2 kmh 29.62 in1003.0 mb 0.00 in0.0 mm 0.00 in0.0 mm 0.01 in0.3 mm
11:50 PM 71.4°F21.9°C 65.3°F18.5°C 81% Calm Calm 1.0 mph1.6 kmh 29.62 in1003.0 mb 0.00 in0.0 mm 0.00 in0.0 mm 0.01 in0.3 mm
11:55 PM 71.2°F21.8°C 65.1°F18.4°C 81% Calm Calm 1.0 mph1.6 kmh 29.63 in1003.4 mb 0.00 in0.0 mm 0.00 in0.0 mm 0.01 in0.3 mm